createdAt,value
2023-02-11T00:00:46.846Z,99343.69
2023-02-11T00:04:50.957Z,99338.75
2023-02-11T00:08:53.778Z,99336.66
2023-02-11T00:12:57.334Z,99346.75
2023-02-11T00:17:00.166Z,99340.66
2023-02-11T00:21:08.856Z,99337.81
2023-02-11T00:25:11.526Z,99333.09
2023-02-11T00:29:14.201Z,99333.41
2023-02-11T00:33:17.015Z,99328.38
2023-02-11T00:37:21.306Z,99332.19
2023-02-11T00:41:24.798Z,99325.59
2023-02-11T00:45:28.783Z,99325.03
2023-02-11T00:49:31.429Z,99332.13
2023-02-11T00:53:36.524Z,99319.94
2023-02-11T00:57:39.135Z,99315.56
2023-02-11T01:01:41.878Z,99319.84
2023-02-11T01:05:44.488Z,99319.09
2023-02-11T01:09:48.432Z,99319.94
2023-02-11T01:13:51.373Z,99321.47
2023-02-11T01:17:54.240Z,99327.16
2023-02-11T01:21:56.841Z,99325.59
2023-02-11T01:30:04.139Z,99308.03
2023-02-11T01:34:06.812Z,99308.72
2023-02-11T01:38:15.177Z,99292.97
2023-02-11T01:42:22.329Z,99290.31
2023-02-11T01:46:31.286Z,99288.69
2023-02-11T01:50:34.542Z,99288.28
2023-02-11T01:55:13.262Z,99282.09
2023-02-11T01:59:22.545Z,99272.28
2023-02-11T02:03:25.923Z,99261.47
2023-02-11T02:07:37.310Z,99245.47
2023-02-11T02:11:39.930Z,99234.97
2023-02-11T02:15:50.517Z,99230.53
2023-02-11T02:20:14.677Z,99237.22
2023-02-11T02:24:39.886Z,99245.78
2023-02-11T02:29:11.040Z,99234.06
2023-02-11T02:33:25.323Z,99228.84
2023-02-11T02:37:35.122Z,99232.03
2023-02-11T02:41:38.880Z,99232.34
2023-02-11T02:45:41.820Z,99247.88
2023-02-11T02:49:45.849Z,99242.06
2023-02-11T02:53:59.251Z,99247.16
2023-02-11T02:58:14.043Z,99234.13
2023-02-11T03:02:25.872Z,99233.13
2023-02-11T03:06:33.981Z,99242.06
2023-02-11T03:10:40.795Z,99248.19
2023-02-11T03:14:43.496Z,99256.34
2023-02-11T03:18:51.290Z,99242.50
2023-02-11T03:22:59.153Z,99234.53
2023-02-11T03:27:07.856Z,99228.69
2023-02-11T03:31:15.901Z,99235.28
2023-02-11T03:35:22.828Z,99224.50
2023-02-11T03:39:32.630Z,99228.41
2023-02-11T03:43:38.951Z,99232.69
2023-02-11T03:47:47.286Z,99228.81
2023-02-11T03:51:53.337Z,99230.84
2023-02-11T03:56:01.005Z,99225.28
2023-02-11T04:00:03.709Z,99222.47
2023-02-11T04:04:07.088Z,99236.91
2023-02-11T04:08:10.109Z,99234.19
2023-02-11T04:12:14.049Z,99226.44
2023-02-11T04:16:16.723Z,99232.78
2023-02-11T04:20:19.858Z,99217.13
2023-02-11T04:24:22.529Z,99213.69
2023-02-11T04:28:29.384Z,99220.47
2023-02-11T04:32:32.059Z,99226.22
2023-02-11T04:36:34.668Z,99209.41
2023-02-11T04:40:37.255Z,99203.28
2023-02-11T04:44:41.244Z,99178.28
2023-02-11T04:48:43.851Z,99205.16
2023-02-11T04:52:46.408Z,99196.13
2023-02-11T04:56:49.696Z,99199.13
2023-02-11T05:00:53.681Z,99199.59
2023-02-11T05:04:56.324Z,99193.38
2023-02-11T05:08:58.898Z,99195.69
2023-02-11T05:13:01.494Z,99186.22
2023-02-11T05:17:05.477Z,99186.16
2023-02-11T05:21:09.120Z,99190.06
2023-02-11T05:25:11.781Z,99188.13
2023-02-11T05:29:14.369Z,99200.41
2023-02-11T05:33:18.891Z,99211.44
2023-02-11T05:37:21.535Z,99201.72
2023-02-11T05:41:24.173Z,99192.41
2023-02-11T05:45:26.758Z,99182.44
2023-02-11T05:49:30.706Z,99174.38
2023-02-11T05:53:33.520Z,99177.66
2023-02-11T05:57:36.099Z,99164.44
2023-02-11T06:01:38.711Z,99163.53
2023-02-11T06:05:43.792Z,99148.34
2023-02-11T06:09:46.425Z,99150.03
2023-02-11T06:13:49.062Z,99172.72
2023-02-11T06:17:51.655Z,99183.91
2023-02-11T06:21:56.863Z,99168.25
2023-02-11T06:26:03.336Z,99167.66
2023-02-11T06:30:08.004Z,99148.53
2023-02-11T06:34:11.104Z,99147.44
2023-02-11T06:38:15.581Z,99149.59
2023-02-11T06:42:18.209Z,99158.03
2023-02-11T06:46:21.050Z,99176.25
2023-02-11T06:50:23.762Z,99166.97
2023-02-11T06:54:27.704Z,99153.50
2023-02-11T06:58:30.355Z,99160.69
2023-02-11T07:02:32.975Z,99160.78
2023-02-11T07:06:37.568Z,99182.84
2023-02-11T07:10:41.734Z,99182.72
2023-02-11T07:14:44.345Z,99181.88
2023-02-11T07:18:47.860Z,99179.06
2023-02-11T07:22:50.503Z,99159.41
2023-02-11T07:26:55.704Z,99159.19
2023-02-11T07:30:58.485Z,99141.44
2023-02-11T07:35:01.286Z,99146.47
2023-02-11T07:39:04.012Z,99134.75
2023-02-11T07:43:08.004Z,99139.66
2023-02-11T07:47:10.606Z,99155.94
2023-02-11T07:51:14.586Z,99155.50
2023-02-11T07:55:17.319Z,99169.72
2023-02-11T07:59:21.536Z,99185.16
2023-02-11T08:03:24.171Z,99183.44
2023-02-11T08:07:29.249Z,99169.63
2023-02-11T08:11:31.876Z,99179.88
2023-02-11T08:15:35.837Z,99184.53
2023-02-11T08:19:39.771Z,99156.66
2023-02-11T08:23:43.756Z,99163.59
2023-02-11T08:27:46.388Z,99169.94
2023-02-11T08:31:50.489Z,99158.25
2023-02-11T08:35:53.106Z,99166.41
2023-02-11T08:39:55.707Z,99157.72
2023-02-11T08:43:59.228Z,99167.53
2023-02-11T08:48:03.196Z,99176.09
2023-02-11T08:52:06.121Z,99194.94
2023-02-11T08:56:13.345Z,99200.84
2023-02-11T09:00:17.491Z,99196.81
2023-02-11T09:04:21.466Z,99189.63
2023-02-11T09:08:24.091Z,99187.25
2023-02-11T09:12:26.676Z,99193.22
2023-02-11T09:16:32.379Z,99174.00
2023-02-11T09:20:36.407Z,99185.53
2023-02-11T09:24:39.055Z,99182.19
2023-02-11T09:28:41.725Z,99186.97
2023-02-11T09:32:44.387Z,99188.41
2023-02-11T09:36:48.389Z,99167.19
2023-02-11T09:40:51.337Z,99181.41
2023-02-11T09:44:54.388Z,99178.09
2023-02-11T09:48:57.488Z,99167.19
2023-02-11T09:53:05.030Z,99178.72
2023-02-11T09:57:22.928Z,99181.72
2023-02-11T10:01:39.676Z,99172.88
2023-02-11T10:06:07.340Z,99173.22
2023-02-11T10:10:21.554Z,99175.13
2023-02-11T10:14:41.017Z,99184.91
2023-02-11T10:19:05.222Z,99186.19
2023-02-11T10:23:14.632Z,99185.19
2023-02-11T10:27:21.878Z,99175.25
2023-02-11T10:31:28.833Z,99177.59
2023-02-11T10:35:32.514Z,99167.13
2023-02-11T10:39:35.122Z,99154.59
2023-02-11T10:43:39.416Z,99155.72
2023-02-11T10:47:42.661Z,99144.84
2023-02-11T10:51:45.277Z,99148.41
2023-02-11T10:55:54.121Z,99135.13
2023-02-11T11:00:01.472Z,99130.78
2023-02-11T11:04:04.151Z,99128.44
2023-02-11T11:08:09.650Z,99134.41
2023-02-11T11:12:26.122Z,99117.88
2023-02-11T11:16:32.444Z,99117.06
2023-02-11T11:20:36.311Z,99122.53
2023-02-11T11:24:46.559Z,99122.84
2023-02-11T11:28:56.890Z,99102.09
2023-02-11T11:33:02.167Z,99094.22
2023-02-11T11:37:12.444Z,99108.78
2023-02-11T11:41:24.310Z,99108.44
2023-02-11T11:45:28.267Z,99115.13
2023-02-11T11:49:37.459Z,99108.81
2023-02-11T11:53:46.491Z,99111.94
2023-02-11T11:57:49.935Z,99097.91
2023-02-11T12:02:13.207Z,99097.03
2023-02-11T12:06:27.632Z,99085.00
2023-02-11T12:10:48.933Z,99069.78
2023-02-11T12:15:04.156Z,99075.97
2023-02-11T12:19:47.323Z,99090.09
2023-02-11T12:24:07.281Z,99093.53
2023-02-11T12:28:23.429Z,99088.50
2023-02-11T12:32:32.001Z,99065.41
2023-02-11T12:36:46.885Z,99057.28
2023-02-11T12:40:59.924Z,99052.50
2023-02-11T12:45:10.003Z,99048.16
2023-02-11T12:49:38.599Z,99029.78
2023-02-11T12:53:53.833Z,99032.22
2023-02-11T12:57:59.950Z,99027.97
2023-02-11T13:02:07.778Z,99026.22
2023-02-11T13:06:15.022Z,99022.09
2023-02-11T13:10:27.261Z,99018.91
2023-02-11T13:14:35.544Z,99019.50
2023-02-11T13:18:49.430Z,99022.25
2023-02-11T13:22:59.777Z,99022.09
2023-02-11T13:27:11.669Z,99023.38
2023-02-11T13:31:16.735Z,99008.78
2023-02-11T13:35:29.894Z,99011.06
2023-02-11T13:39:32.382Z,99017.44
2023-02-11T13:43:37.778Z,99020.69
2023-02-11T13:47:42.544Z,99024.69
2023-02-11T13:51:45.405Z,99030.88
2023-02-11T13:55:50.819Z,99022.84
2023-02-11T13:59:54.940Z,99032.88
2023-02-11T14:04:40.395Z,99028.97
2023-02-11T14:09:03.307Z,99027.31
2023-02-11T14:13:07.110Z,99028.91
2023-02-11T14:17:21.246Z,99021.91
2023-02-11T14:21:34.335Z,99015.31
2023-02-11T14:25:39.497Z,99011.56
2023-02-11T14:29:51.050Z,99005.78
2023-02-11T14:34:06.151Z,99014.25
2023-02-11T14:38:19.618Z,99012.41
2023-02-11T14:42:26.935Z,99015.50
2023-02-11T14:46:32.823Z,99006.03
2023-02-11T14:50:41.211Z,99014.97
2023-02-11T14:54:46.125Z,99006.03
2023-02-11T14:58:51.757Z,99014.97
2023-02-11T15:02:54.632Z,99013.81
2023-02-11T15:06:59.356Z,99009.56
2023-02-11T15:11:08.715Z,99000.84
2023-02-11T15:15:14.432Z,99005.31
2023-02-11T15:19:24.319Z,99002.38
2023-02-11T15:23:29.685Z,99010.84
2023-02-11T15:27:41.329Z,99008.88
2023-02-11T15:31:44.232Z,99006.31
2023-02-11T15:35:46.989Z,99009.72
2023-02-11T15:39:50.080Z,99014.06
2023-02-11T15:43:54.116Z,99013.53
2023-02-11T15:48:00.812Z,99009.72
2023-02-11T15:52:03.882Z,99023.22
2023-02-11T15:56:13.120Z,99030.31
2023-02-11T16:00:21.157Z,99022.25
2023-02-11T16:04:26.272Z,99022.66
2023-02-11T16:08:32.754Z,99035.91
2023-02-11T16:12:35.379Z,99030.84
2023-02-11T16:16:39.554Z,99033.38
2023-02-11T16:20:42.361Z,99036.34
2023-02-11T16:24:48.512Z,99034.63
2023-02-11T16:28:51.879Z,99044.38
2023-02-11T16:32:55.981Z,99056.66
2023-02-11T16:36:58.622Z,99062.84
2023-02-11T16:41:01.230Z,99062.00
2023-02-11T16:45:04.010Z,99071.00
2023-02-11T16:49:11.770Z,99057.47
2023-02-11T16:53:22.122Z,99066.88
2023-02-11T16:57:28.803Z,99084.00
2023-02-11T17:01:33.396Z,99079.13
2023-02-11T17:05:53.071Z,99081.97
2023-02-11T17:09:57.919Z,99080.34
2023-02-11T17:14:00.536Z,99087.91
2023-02-11T17:18:03.966Z,99103.84
2023-02-11T17:22:07.992Z,99092.03
2023-02-11T17:26:10.616Z,99105.31
2023-02-11T17:30:15.490Z,99114.38
2023-02-11T17:34:18.518Z,99112.97
2023-02-11T17:38:22.553Z,99111.75
2023-02-11T17:42:25.199Z,99109.25
2023-02-11T17:46:29.182Z,99124.72
2023-02-11T17:50:31.848Z,99120.06
2023-02-11T17:54:35.865Z,99128.75
2023-02-11T17:58:38.540Z,99131.47
2023-02-11T18:02:41.279Z,99140.63
2023-02-11T18:06:44.637Z,99138.25
2023-02-11T18:10:48.765Z,99140.09
2023-02-11T18:14:51.895Z,99135.38
2023-02-11T18:18:54.561Z,99140.88
2023-02-11T18:22:57.214Z,99140.25
2023-02-11T18:27:01.190Z,99144.25
2023-02-11T18:31:05.851Z,99137.69
2023-02-11T18:35:14.872Z,99135.53
2023-02-11T18:39:18.665Z,99139.41
2023-02-11T18:43:22.771Z,99148.25
2023-02-11T18:47:25.575Z,99150.69
2023-02-11T18:51:28.417Z,99152.00
2023-02-11T18:55:37.512Z,99165.25
2023-02-11T18:59:41.478Z,99151.06
2023-02-11T19:03:48.306Z,99161.00
2023-02-11T19:07:51.462Z,99155.78
2023-02-11T19:11:57.995Z,99156.91
2023-02-11T19:16:07.749Z,99149.84
2023-02-11T19:20:17.081Z,99164.53
2023-02-11T19:24:20.338Z,99165.16
2023-02-11T19:28:22.993Z,99183.47
2023-02-11T19:32:34.389Z,99168.66
2023-02-11T19:36:40.674Z,99177.41
2023-02-11T19:40:43.381Z,99170.09
2023-02-11T19:44:51.897Z,99175.34
2023-02-11T19:49:04.213Z,99171.56
2023-02-11T19:53:09.558Z,99175.00
2023-02-11T19:57:12.177Z,99168.66
2023-02-11T20:01:17.533Z,99169.50
2023-02-11T20:05:30.714Z,99167.69
2023-02-11T20:09:33.530Z,99162.94
2023-02-11T20:13:37.739Z,99156.75
2023-02-11T20:17:40.368Z,99172.28
2023-02-11T20:21:47.134Z,99164.78
2023-02-11T20:25:50.615Z,99163.94
2023-02-11T20:29:53.699Z,99164.53
2023-02-11T20:33:57.352Z,99161.00
2023-02-11T20:38:10.277Z,99171.34
2023-02-11T20:42:14.304Z,99170.94
2023-02-11T20:46:33.879Z,99181.41
2023-02-11T20:50:36.636Z,99175.56
2023-02-11T20:54:41.217Z,99172.78
2023-02-11T20:58:50.116Z,99180.41
2023-02-11T21:02:52.883Z,99186.47
2023-02-11T21:06:59.960Z,99181.97
2023-02-11T21:11:04.129Z,99188.03
2023-02-11T21:15:09.748Z,99178.06
2023-02-11T21:19:13.032Z,99167.53
2023-02-11T21:23:15.814Z,99161.19
2023-02-11T21:27:20.113Z,99182.69
2023-02-11T21:31:24.670Z,99185.53
2023-02-11T21:35:27.781Z,99184.41
2023-02-11T21:39:30.550Z,99189.03
2023-02-11T21:43:34.873Z,99206.41
2023-02-11T21:47:37.527Z,99205.41
2023-02-11T21:51:40.582Z,99201.91
2023-02-11T21:55:43.644Z,99226.19
2023-02-11T21:59:47.620Z,99226.66
2023-02-11T22:03:50.530Z,99217.66
2023-02-11T22:07:53.385Z,99214.16
2023-02-11T22:11:56.184Z,99212.31
2023-02-11T22:16:01.960Z,99212.81
2023-02-11T22:20:05.345Z,99211.44
2023-02-11T22:24:08.355Z,99213.13
2023-02-11T22:28:11.009Z,99213.69
2023-02-11T22:32:17.655Z,99213.53
2023-02-11T22:36:20.990Z,99221.31
2023-02-11T22:40:23.710Z,99214.28
2023-02-11T22:44:27.002Z,99206.03
2023-02-11T22:48:30.999Z,99213.31
2023-02-11T22:52:36.034Z,99214.91
2023-02-11T22:56:38.691Z,99212.56
2023-02-11T23:00:43.111Z,99202.72
2023-02-11T23:04:49.660Z,99201.03
2023-02-11T23:08:52.694Z,99212.56
2023-02-11T23:12:55.322Z,99223.28
2023-02-11T23:16:57.998Z,99231.06
2023-02-11T23:21:06.644Z,99237.84
2023-02-11T23:25:09.642Z,99233.06
2023-02-11T23:29:12.566Z,99228.31
2023-02-11T23:33:15.256Z,99234.66
2023-02-11T23:37:19.466Z,99235.03
2023-02-11T23:41:22.734Z,99235.19
2023-02-11T23:45:25.375Z,99228.50
2023-02-11T23:49:27.992Z,99224.38
2023-02-11T23:53:31.977Z,99227.78
2023-02-11T23:57:35.564Z,99231.44
